createdAt,value
2018-10-09T00:01:47.436Z,23.60
2018-10-09T00:04:17.099Z,22.77
2018-10-09T00:06:46.780Z,25.20
2018-10-09T00:09:16.446Z,22.57
2018-10-09T00:11:46.416Z,21.90
2018-10-09T00:14:20.298Z,19.83
2018-10-09T00:16:50.006Z,19.90
2018-10-09T00:19:19.636Z,18.90
2018-10-09T00:21:49.690Z,18.60
2018-10-09T00:24:19.381Z,18.17
2018-10-09T00:26:49.021Z,17.80
2018-10-09T00:29:18.727Z,18.27
2018-10-09T00:31:48.454Z,17.67
2018-10-09T00:34:18.115Z,16.40
2018-10-09T00:36:47.756Z,17.83
2018-10-09T00:39:18.712Z,18.60
2018-10-09T00:41:48.415Z,19.40
2018-10-09T00:44:18.047Z,19.57
2018-10-09T00:46:47.689Z,18.07
2018-10-09T00:49:17.400Z,18.53
2018-10-09T00:51:47.033Z,20.47
2018-10-09T00:54:17.152Z,18.93
2018-10-09T00:56:46.800Z,16.67
2018-10-09T00:59:16.449Z,15.67
2018-10-09T01:01:46.124Z,16.43
2018-10-09T01:04:16.653Z,15.60
2018-10-09T01:06:46.311Z,16.40
2018-10-09T01:09:16.357Z,16.33
2018-10-09T01:11:45.938Z,16.47
2018-10-09T01:14:15.649Z,18.03
2018-10-09T01:16:45.708Z,18.60
2018-10-09T01:19:15.397Z,17.13
2018-10-09T01:21:45.000Z,16.90
2018-10-09T01:24:14.698Z,18.93
2018-10-09T01:26:44.782Z,16.47
2018-10-09T01:29:15.141Z,18.53
2018-10-09T01:31:44.899Z,19.27
2018-10-09T01:34:14.553Z,18.50
2018-10-09T01:36:44.209Z,16.57
2018-10-09T01:39:13.847Z,17.40
2018-10-09T01:41:43.929Z,18.87
2018-10-09T01:44:13.604Z,20.03
2018-10-09T01:46:43.298Z,17.13
2018-10-09T01:49:12.988Z,16.67
2018-10-09T01:51:42.727Z,16.37
2018-10-09T01:54:12.369Z,16.10
2018-10-09T01:56:42.333Z,16.20
2018-10-09T01:59:12.016Z,15.00
2018-10-09T02:01:41.735Z,14.87
2018-10-09T02:04:11.435Z,14.23
2018-10-09T02:06:41.492Z,14.20
2018-10-09T02:09:12.032Z,14.30
2018-10-09T02:11:41.672Z,16.50
2018-10-09T02:14:11.349Z,16.47
2018-10-09T02:16:41.072Z,18.43
2018-10-09T02:19:10.761Z,16.77
2018-10-09T02:21:40.778Z,18.10
2018-10-09T02:24:10.408Z,20.63
2018-10-09T02:26:40.077Z,26.40
2018-10-09T02:29:09.754Z,25.70
2018-10-09T02:31:41.187Z,23.87
2018-10-09T02:34:10.856Z,23.37
2018-10-09T02:36:41.742Z,21.17
2018-10-09T02:39:12.637Z,19.53
2018-10-09T02:41:43.112Z,18.30
2018-10-09T02:44:13.162Z,18.53
2018-10-09T02:46:42.915Z,18.33
2018-10-09T02:49:12.631Z,16.23
2018-10-09T02:51:42.312Z,16.43
2018-10-09T02:54:11.958Z,17.00
2018-10-09T02:56:41.636Z,15.83
2018-10-09T02:59:11.828Z,15.90
2018-10-09T03:01:41.545Z,15.90
2018-10-09T03:04:11.245Z,15.77
2018-10-09T03:06:40.922Z,14.70
2018-10-09T03:09:11.275Z,14.87
2018-10-09T03:11:42.397Z,16.17
2018-10-09T03:14:12.091Z,15.57
2018-10-09T03:16:41.774Z,17.30
2018-10-09T03:19:11.455Z,17.03
2018-10-09T03:21:41.112Z,15.73
2018-10-09T03:24:12.128Z,14.90
2018-10-09T03:26:42.913Z,15.07
2018-10-09T03:29:12.681Z,14.33
2018-10-09T03:31:42.352Z,15.07
2018-10-09T03:34:12.061Z,14.60
2018-10-09T03:36:41.768Z,14.60
2018-10-09T03:39:11.444Z,14.80
2018-10-09T03:41:41.563Z,15.40
2018-10-09T03:44:11.301Z,14.70
2018-10-09T03:46:40.966Z,15.13
2018-10-09T03:49:11.603Z,18.63
2018-10-09T03:51:41.340Z,18.90
2018-10-09T03:54:11.801Z,17.47
2018-10-09T03:56:42.020Z,23.97
2018-10-09T03:59:12.221Z,22.70
2018-10-09T04:01:42.136Z,24.90
2018-10-09T04:04:12.256Z,20.93
2018-10-09T04:06:41.893Z,20.77
2018-10-09T04:09:13.754Z,19.47
2018-10-09T04:11:44.032Z,20.33
2018-10-09T04:14:14.208Z,19.57
2018-10-09T04:16:43.863Z,18.73
2018-10-09T04:19:13.567Z,16.73
2018-10-09T04:21:43.233Z,17.83
2018-10-09T04:24:13.387Z,16.97
2018-10-09T04:26:43.020Z,15.73
2018-10-09T04:29:12.661Z,17.30
2018-10-09T04:31:42.412Z,18.77
2018-10-09T04:34:12.064Z,17.03
2018-10-09T04:36:41.685Z,15.77
2018-10-09T04:39:11.848Z,15.27
2018-10-09T04:41:41.517Z,15.70
2018-10-09T04:44:11.147Z,17.50
2018-10-09T04:46:42.430Z,15.67
2018-10-09T04:49:12.117Z,14.20
2018-10-09T04:51:42.589Z,13.73
2018-10-09T04:54:12.260Z,15.07
2018-10-09T04:56:42.326Z,14.00
2018-10-09T04:59:11.984Z,13.87
2018-10-09T05:01:41.641Z,13.87
2018-10-09T05:04:12.467Z,14.57
2018-10-09T05:06:42.086Z,13.90
2018-10-09T05:09:12.658Z,14.50
2018-10-09T05:11:42.440Z,15.30
2018-10-09T05:14:12.101Z,15.40
2018-10-09T05:16:41.755Z,15.67
2018-10-09T05:19:11.424Z,14.57
2018-10-09T05:21:41.052Z,14.67
2018-10-09T05:24:11.589Z,14.43
2018-10-09T05:26:41.760Z,14.77
2018-10-09T05:29:11.488Z,15.00
2018-10-09T05:31:41.268Z,13.57
2018-10-09T05:34:10.972Z,13.30
2018-10-09T05:36:41.196Z,13.53
2018-10-09T05:39:11.646Z,12.80
2018-10-09T05:41:41.872Z,12.77
2018-10-09T05:44:11.646Z,12.77
2018-10-09T05:46:41.319Z,13.00
2018-10-09T05:49:11.780Z,12.93
2018-10-09T05:51:41.513Z,13.47
2018-10-09T05:54:11.434Z,14.30
2018-10-09T05:56:41.506Z,13.80
2018-10-09T05:59:11.927Z,14.60
2018-10-09T06:01:41.542Z,18.10
2018-10-09T06:04:24.761Z,19.23
2018-10-09T06:06:55.529Z,19.07
2018-10-09T06:09:25.653Z,18.83
2018-10-09T06:11:55.304Z,23.57
2018-10-09T06:14:27.970Z,23.93
2018-10-09T06:16:57.768Z,22.43
2018-10-09T06:19:27.469Z,20.57
2018-10-09T06:21:57.989Z,20.33
2018-10-09T06:24:30.745Z,19.63
2018-10-09T06:27:01.295Z,18.10
2018-10-09T06:29:30.956Z,18.57
2018-10-09T06:32:00.622Z,15.73
2018-10-09T06:34:30.709Z,17.03
2018-10-09T06:37:00.418Z,16.33
2018-10-09T06:39:32.585Z,16.93
2018-10-09T06:42:02.256Z,17.03
2018-10-09T06:44:33.485Z,24.23
2018-10-09T06:47:03.165Z,22.17
2018-10-09T06:49:33.593Z,19.63
2018-10-09T06:52:03.428Z,22.43
2018-10-09T06:54:33.185Z,22.37
2018-10-09T06:57:04.361Z,26.20
2018-10-09T06:59:36.346Z,26.33
2018-10-09T07:02:06.009Z,30.13
2018-10-09T07:04:36.257Z,32.50
2018-10-09T07:07:08.411Z,35.43
2018-10-09T07:09:40.330Z,31.97
2018-10-09T07:12:10.726Z,30.53
2018-10-09T07:14:40.385Z,29.70
2018-10-09T07:17:12.157Z,27.57
2018-10-09T07:19:41.915Z,21.17
2018-10-09T07:22:11.876Z,21.70
2018-10-09T07:24:41.628Z,19.63
2018-10-09T07:27:17.502Z,16.10
2018-10-09T07:29:47.598Z,16.70
2018-10-09T07:32:17.267Z,15.97
2018-10-09T07:34:47.243Z,16.13
2018-10-09T07:37:19.716Z,17.17
2018-10-09T07:39:49.554Z,14.90
2018-10-09T07:42:19.212Z,14.23
2018-10-09T07:44:51.444Z,15.23
2018-10-09T07:47:22.058Z,15.27
2018-10-09T07:49:52.522Z,16.63
2018-10-09T07:52:22.268Z,17.20
2018-10-09T07:54:53.436Z,17.40
2018-10-09T07:57:23.610Z,18.40
2018-10-09T07:59:53.270Z,17.63
2018-10-09T08:02:22.948Z,19.70
2018-10-09T08:04:53.349Z,18.20
2018-10-09T08:07:23.010Z,19.60
2018-10-09T08:09:56.341Z,17.73
2018-10-09T08:12:28.253Z,18.93
2018-10-09T08:14:57.968Z,19.23
2018-10-09T08:17:28.890Z,19.43
2018-10-09T08:19:58.630Z,19.83
2018-10-09T08:22:29.493Z,20.47
2018-10-09T08:25:00.088Z,19.30
2018-10-09T08:27:32.664Z,20.10
2018-10-09T08:30:07.732Z,19.73
2018-10-09T08:32:37.454Z,18.87
2018-10-09T08:35:07.279Z,17.50
2018-10-09T08:37:40.633Z,17.73
2018-10-09T08:40:24.639Z,15.57
2018-10-09T08:42:55.082Z,15.37
2018-10-09T08:45:26.419Z,15.57
2018-10-09T08:47:58.317Z,11.80
2018-10-09T08:50:30.249Z,10.60
2018-10-09T08:52:59.856Z,8.80
2018-10-09T08:55:32.830Z,8.33
2018-10-09T08:58:04.296Z,8.40
2018-10-09T09:00:34.633Z,7.67
2018-10-09T09:03:05.577Z,8.73
2018-10-09T09:05:38.070Z,13.83
2018-10-09T09:08:07.790Z,11.63
2018-10-09T09:10:38.619Z,11.57
2018-10-09T09:13:09.801Z,11.33
2018-10-09T09:15:39.510Z,10.23
2018-10-09T09:18:09.781Z,8.67
2018-10-09T09:20:47.734Z,12.27
2018-10-09T09:23:19.430Z,11.30
2018-10-09T09:25:52.490Z,12.27
2018-10-09T09:31:50.464Z,13.67
2018-10-09T09:34:20.483Z,12.63
2018-10-09T09:36:51.365Z,12.13
2018-10-09T09:39:21.039Z,13.10
2018-10-09T09:41:55.233Z,12.40
2018-10-09T09:44:24.894Z,13.03
2018-10-09T09:46:54.638Z,12.40
2018-10-09T09:49:26.614Z,12.20
2018-10-09T09:51:56.483Z,12.80
2018-10-09T09:54:26.200Z,12.90
2018-10-09T09:56:56.670Z,11.60
2018-10-09T09:59:26.896Z,13.17
2018-10-09T10:01:56.613Z,13.33
2018-10-09T10:04:28.042Z,12.60
2018-10-09T10:06:58.967Z,12.57
2018-10-09T10:09:29.650Z,12.83
2018-10-09T10:12:01.069Z,13.03
2018-10-09T10:14:36.543Z,13.50
2018-10-09T10:17:08.113Z,14.13
2018-10-09T10:19:38.421Z,13.77
2018-10-09T10:22:15.893Z,14.40
2018-10-09T10:24:46.589Z,13.73
2018-10-09T10:27:17.493Z,14.57
2018-10-09T10:29:47.395Z,13.07
2018-10-09T10:32:17.308Z,14.37
2018-10-09T10:34:48.043Z,12.93
2018-10-09T10:37:18.335Z,12.90
2018-10-09T10:39:48.593Z,13.00
2018-10-09T10:42:20.713Z,13.87
2018-10-09T10:44:53.011Z,13.30
2018-10-09T10:47:23.747Z,12.77
2018-10-09T10:49:53.487Z,12.37
2018-10-09T10:52:23.208Z,12.40
2018-10-09T10:54:55.924Z,12.50
2018-10-09T10:57:26.391Z,11.53
2018-10-09T10:59:58.105Z,11.53
2018-10-09T11:02:28.598Z,12.00
2018-10-09T11:05:02.454Z,12.67
2018-10-09T11:07:32.333Z,13.23
2018-10-09T11:10:02.931Z,13.30
2018-10-09T11:12:33.360Z,13.87
2018-10-09T11:15:05.310Z,13.20
2018-10-09T11:17:36.318Z,13.47
2018-10-09T11:20:07.287Z,12.93
2018-10-09T11:22:37.480Z,14.13
2018-10-09T11:25:12.484Z,14.07
2018-10-09T11:27:44.315Z,14.03
2018-10-09T11:30:19.342Z,12.80
2018-10-09T11:32:51.510Z,13.30
2018-10-09T11:35:22.814Z,14.57
2018-10-09T11:37:59.436Z,13.00
2018-10-09T11:40:31.269Z,11.40
2018-10-09T11:43:03.014Z,12.67
2018-10-09T11:45:33.700Z,12.83
2018-10-09T11:48:07.047Z,12.77
2018-10-09T11:50:39.560Z,12.70
2018-10-09T11:53:10.915Z,11.70
2018-10-09T11:55:40.574Z,12.10
2018-10-09T11:58:13.363Z,12.10
2018-10-09T12:00:45.954Z,12.27
2018-10-09T12:03:18.432Z,12.80
2018-10-09T12:05:49.330Z,11.87
2018-10-09T12:08:21.891Z,11.23
2018-10-09T12:10:55.607Z,10.50
2018-10-09T12:13:26.528Z,9.90
2018-10-09T12:15:57.158Z,9.47
2018-10-09T12:18:28.292Z,9.70
2018-10-09T12:20:58.022Z,10.87
2018-10-09T12:23:30.212Z,8.50
2018-10-09T12:26:05.293Z,8.20
2018-10-09T12:28:36.715Z,9.00
2018-10-09T12:31:07.129Z,9.07
2018-10-09T12:33:45.165Z,9.27
2018-10-09T12:36:22.965Z,8.20
2018-10-09T12:38:53.234Z,5.60
2018-10-09T12:41:23.927Z,5.40
2018-10-09T12:43:53.662Z,5.50
2018-10-09T12:46:25.814Z,5.60
2018-10-09T12:49:00.251Z,5.77
2018-10-09T12:51:35.193Z,4.67
2018-10-09T12:54:06.667Z,4.70
2018-10-09T12:56:37.961Z,4.90
2018-10-09T12:59:08.625Z,5.33
2018-10-09T13:01:41.222Z,5.80
2018-10-09T13:04:13.929Z,5.33
2018-10-09T13:06:45.172Z,5.20
2018-10-09T13:09:15.457Z,5.10
2018-10-09T13:11:54.674Z,5.07
2018-10-09T13:14:26.493Z,5.30
2018-10-09T13:16:56.854Z,5.50
2018-10-09T13:22:04.089Z,5.63
2018-10-09T13:24:34.839Z,5.33
2018-10-09T13:27:05.469Z,5.23
2018-10-09T13:29:36.330Z,5.63
2018-10-09T13:32:07.198Z,5.53
2018-10-09T13:34:37.179Z,5.57
2018-10-09T13:37:07.301Z,5.87
2018-10-09T13:39:38.181Z,6.00
2018-10-09T13:45:11.692Z,6.47
2018-10-09T13:47:41.810Z,6.67
2018-10-09T13:50:12.350Z,7.67
2018-10-09T13:52:47.137Z,7.33
2018-10-09T13:55:19.382Z,7.40
2018-10-09T13:57:50.438Z,7.67
2018-10-09T14:00:20.677Z,6.83
2018-10-09T14:05:32.218Z,7.10
2018-10-09T14:08:02.801Z,10.13
2018-10-09T14:10:33.005Z,9.77
2018-10-09T14:13:03.463Z,9.63
2018-10-09T14:15:33.430Z,10.13
2018-10-09T14:18:05.410Z,9.97
2018-10-09T14:20:37.155Z,10.93
2018-10-09T14:23:10.120Z,11.90
2018-10-09T14:25:39.810Z,11.73
2018-10-09T14:28:10.013Z,10.77
2018-10-09T14:30:41.197Z,11.53
2018-10-09T14:33:13.137Z,11.13
2018-10-09T14:35:44.426Z,10.63
2018-10-09T14:38:16.933Z,10.73
2018-10-09T14:40:46.665Z,9.80
2018-10-09T14:43:16.709Z,9.63
2018-10-09T14:45:48.416Z,9.93
2018-10-09T14:48:19.992Z,10.17
2018-10-09T14:50:50.167Z,10.17
2018-10-09T14:53:19.913Z,10.37
2018-10-09T14:55:51.242Z,9.60
2018-10-09T14:58:21.952Z,9.67
2018-10-09T15:00:52.269Z,9.53
2018-10-09T15:03:21.987Z,9.63
2018-10-09T15:05:52.406Z,11.13
2018-10-09T15:08:24.099Z,14.57
2018-10-09T15:10:53.890Z,21.50
2018-10-09T15:13:23.637Z,30.50
2018-10-09T15:15:53.365Z,15.87
2018-10-09T15:18:25.819Z,32.03
2018-10-09T15:20:57.953Z,15.47
2018-10-09T15:23:28.603Z,22.23
2018-10-09T15:25:58.372Z,8.73
2018-10-09T15:28:35.841Z,8.83
2018-10-09T15:31:05.664Z,13.40
2018-10-09T15:33:38.802Z,10.03
2018-10-09T15:36:11.118Z,9.27
2018-10-09T15:38:40.971Z,9.37
2018-10-09T15:41:19.815Z,9.60
2018-10-09T15:43:53.395Z,9.90
2018-10-09T15:46:24.990Z,10.03
2018-10-09T15:48:58.336Z,9.30
2018-10-09T15:51:38.544Z,9.33
2018-10-09T15:54:13.416Z,8.47
2018-10-09T15:56:53.876Z,8.53
2018-10-09T16:05:13.582Z,9.03
2018-10-09T16:07:43.553Z,9.23
2018-10-09T16:10:14.342Z,8.97
2018-10-09T16:12:44.085Z,9.43
2018-10-09T16:15:15.222Z,9.50
2018-10-09T16:17:45.030Z,8.87
2018-10-09T16:23:13.433Z,9.47
2018-10-09T16:26:18.699Z,9.20
2018-10-09T16:28:50.290Z,10.13
2018-10-09T16:31:20.619Z,10.47
2018-10-09T16:33:52.569Z,9.57
2018-10-09T16:36:22.438Z,9.93
2018-10-09T16:38:53.232Z,9.90
2018-10-09T16:41:26.514Z,9.60
2018-10-09T16:43:58.673Z,9.63
2018-10-09T16:46:29.803Z,9.87
2018-10-09T16:49:01.623Z,9.40
2018-10-09T16:51:31.626Z,9.17
2018-10-09T16:54:04.442Z,10.13
2018-10-09T16:56:34.769Z,10.33
2018-10-09T16:59:05.600Z,9.40
2018-10-09T17:01:37.986Z,9.50
2018-10-09T17:04:09.847Z,9.27
2018-10-09T17:06:39.647Z,8.93
2018-10-09T17:09:13.018Z,9.90
2018-10-09T17:11:44.243Z,9.57
2018-10-09T17:14:14.590Z,9.30
2018-10-09T17:16:50.088Z,9.77
2018-10-09T17:19:26.255Z,10.37
2018-10-09T17:21:56.882Z,10.23
2018-10-09T17:24:28.980Z,10.00
2018-10-09T17:27:00.423Z,9.47
2018-10-09T17:29:31.270Z,11.27
2018-10-09T17:32:02.612Z,13.23
2018-10-09T17:34:33.425Z,12.73
2018-10-09T17:37:05.213Z,12.83
2018-10-09T17:39:39.305Z,12.60
2018-10-09T17:42:10.450Z,13.00
2018-10-09T17:44:41.634Z,13.77
2018-10-09T17:47:13.958Z,13.63
2018-10-09T17:49:48.146Z,14.57
2018-10-09T17:52:19.487Z,16.17
2018-10-09T17:54:51.495Z,15.43
2018-10-09T17:57:23.481Z,15.50
2018-10-09T17:59:54.485Z,15.57
2018-10-09T18:02:24.587Z,13.37
2018-10-09T18:04:55.505Z,12.80
2018-10-09T18:07:25.994Z,12.37
2018-10-09T18:09:57.745Z,13.50
2018-10-09T18:12:29.432Z,13.60
2018-10-09T18:15:05.731Z,13.73
2018-10-09T18:17:40.567Z,12.63
2018-10-09T18:20:16.511Z,12.67
2018-10-09T18:22:48.572Z,12.67
2018-10-09T18:25:22.186Z,12.07
2018-10-09T18:27:55.034Z,11.60
2018-10-09T18:30:28.287Z,12.10
2018-10-09T18:32:59.601Z,13.00
2018-10-09T18:35:30.929Z,12.97
2018-10-09T18:38:02.681Z,12.90
2018-10-09T18:40:33.415Z,12.17
2018-10-09T18:43:03.628Z,11.57
2018-10-09T18:45:35.786Z,12.00
2018-10-09T18:48:07.348Z,12.77
2018-10-09T18:50:37.462Z,11.97
2018-10-09T18:53:09.241Z,12.27
2018-10-09T18:55:41.861Z,12.57
2018-10-09T18:58:16.825Z,11.73
2018-10-09T19:00:50.326Z,11.93
2018-10-09T19:03:30.016Z,11.67
2018-10-09T19:06:04.091Z,12.87
2018-10-09T19:08:41.265Z,11.53
2018-10-09T19:11:14.564Z,11.40
2018-10-09T19:13:45.499Z,11.50
2018-10-09T19:16:17.453Z,11.43
2018-10-09T19:18:48.530Z,11.90
2018-10-09T19:21:21.000Z,11.37
2018-10-09T19:23:59.106Z,11.33
2018-10-09T19:26:30.233Z,11.23
2018-10-09T19:29:04.656Z,12.23
2018-10-09T19:31:34.780Z,11.23
2018-10-09T19:34:05.517Z,11.30
2018-10-09T19:37:11.629Z,11.73
2018-10-09T19:39:45.513Z,10.43
2018-10-09T19:42:16.869Z,10.93
2018-10-09T19:44:49.983Z,11.47
2018-10-09T19:47:20.589Z,10.80
2018-10-09T19:49:51.430Z,11.47
2018-10-09T19:52:35.941Z,11.50
2018-10-09T19:55:08.109Z,11.10
2018-10-09T19:57:38.858Z,10.47
2018-10-09T20:00:13.166Z,11.60
2018-10-09T20:02:46.819Z,10.83
2018-10-09T20:05:50.310Z,11.00
2018-10-09T20:08:22.495Z,11.47
2018-10-09T20:10:54.193Z,11.80
2018-10-09T20:13:24.422Z,11.07
2018-10-09T20:15:57.460Z,11.10
2018-10-09T20:18:28.713Z,11.90
2018-10-09T20:20:59.691Z,12.70
2018-10-09T20:23:29.378Z,12.57
2018-10-09T20:28:41.860Z,13.77
2018-10-09T20:31:12.769Z,14.33
2018-10-09T20:33:45.915Z,13.50
2018-10-09T20:36:15.682Z,12.60
2018-10-09T20:38:45.393Z,13.57
2018-10-09T20:41:15.129Z,13.27
2018-10-09T20:43:45.540Z,13.83
2018-10-09T20:46:20.235Z,12.67
2018-10-09T20:48:51.065Z,13.67
2018-10-09T20:51:24.804Z,13.53
2018-10-09T20:53:55.909Z,12.90
2018-10-09T20:56:26.513Z,13.40
2018-10-09T20:58:58.678Z,13.33
2018-10-09T21:01:29.589Z,13.27
2018-10-09T21:04:00.001Z,13.77
2018-10-09T21:06:31.523Z,14.53
2018-10-09T21:09:03.125Z,15.27
2018-10-09T21:11:34.362Z,15.80
2018-10-09T21:14:36.971Z,14.67
2018-10-09T21:17:09.433Z,13.60
2018-10-09T21:19:39.392Z,14.77
2018-10-09T21:22:09.390Z,13.73
2018-10-09T21:24:39.936Z,14.13
2018-10-09T21:27:09.722Z,13.20
2018-10-09T21:29:40.392Z,12.90
2018-10-09T21:32:12.350Z,12.70
2018-10-09T21:34:42.288Z,12.87
2018-10-09T21:37:13.653Z,11.87
2018-10-09T21:39:44.223Z,12.40
2018-10-09T21:42:16.126Z,12.93
2018-10-09T21:44:45.893Z,12.30
2018-10-09T21:47:22.393Z,13.10
2018-10-09T21:49:53.707Z,12.50
2018-10-09T21:52:23.389Z,12.23
2018-10-09T21:54:55.856Z,13.07
2018-10-09T21:57:25.587Z,12.33
2018-10-09T21:59:55.387Z,13.43
2018-10-09T22:02:26.016Z,13.53
2018-10-09T22:04:58.935Z,13.40
2018-10-09T22:07:28.662Z,13.00
2018-10-09T22:09:58.466Z,13.20
2018-10-09T22:12:28.197Z,12.10
2018-10-09T22:14:57.854Z,12.40
2018-10-09T22:17:28.268Z,12.30
2018-10-09T22:19:58.790Z,11.97
2018-10-09T22:22:30.610Z,11.03
2018-10-09T22:25:04.279Z,12.40
2018-10-09T22:27:34.562Z,13.27
2018-10-09T22:30:05.998Z,12.00
2018-10-09T22:32:36.087Z,12.37
2018-10-09T22:35:07.295Z,12.03
2018-10-09T22:37:37.005Z,12.63
2018-10-09T22:40:07.467Z,12.93
2018-10-09T22:42:37.225Z,12.10
2018-10-09T22:45:38.142Z,12.27
2018-10-09T22:48:08.419Z,11.77
2018-10-09T22:50:38.437Z,11.57
2018-10-09T22:53:08.618Z,11.63
2018-10-09T22:55:38.359Z,11.90
2018-10-09T22:58:08.072Z,11.77
2018-10-09T23:00:38.446Z,12.13
2018-10-09T23:03:09.016Z,12.57
2018-10-09T23:05:38.985Z,11.97
2018-10-09T23:08:09.744Z,11.17
2018-10-09T23:10:39.432Z,11.60
2018-10-09T23:13:10.369Z,12.10
2018-10-09T23:15:41.648Z,11.47
2018-10-09T23:18:11.806Z,11.47
2018-10-09T23:20:42.309Z,12.27
2018-10-09T23:23:12.442Z,11.83
2018-10-09T23:25:42.304Z,11.93
2018-10-09T23:28:14.130Z,12.33
2018-10-09T23:30:44.778Z,11.90
2018-10-09T23:33:16.150Z,11.77
2018-10-09T23:35:46.466Z,11.43
2018-10-09T23:38:16.805Z,12.03
2018-10-09T23:40:46.500Z,12.90
2018-10-09T23:43:16.698Z,12.47
2018-10-09T23:45:47.349Z,12.90
2018-10-09T23:48:17.779Z,11.17
2018-10-09T23:50:47.525Z,12.63
2018-10-09T23:53:17.169Z,12.27
2018-10-09T23:55:47.448Z,11.63
2018-10-09T23:58:17.156Z,11.40
